sensor_id;sensor_type;location;lat;lon;timestamp;temperature;humidity
9980;DHT22;5030;51.532;6.766;2023-01-24T00:00:55;3.60;99.90
9980;DHT22;5030;51.532;6.766;2023-01-24T00:03:21;3.60;99.90
9980;DHT22;5030;51.532;6.766;2023-01-24T00:05:49;3.50;99.90
9980;DHT22;5030;51.532;6.766;2023-01-24T00:08:16;3.40;99.90
9980;DHT22;5030;51.532;6.766;2023-01-24T00:10:44;3.50;99.90
9980;DHT22;5030;51.532;6.766;2023-01-24T00:13:12;3.50;99.90
9980;DHT22;5030;51.532;6.766;2023-01-24T00:15:38;3.40;99.90
9980;DHT22;5030;51.532;6.766;2023-01-24T00:18:04;3.40;99.90
9980;DHT22;5030;51.532;6.766;2023-01-24T00:20:29;3.50;99.90
9980;DHT22;5030;51.532;6.766;2023-01-24T00:22:55;3.40;99.90
9980;DHT22;5030;51.532;6.766;2023-01-24T00:25:21;3.40;99.90
9980;DHT22;5030;51.532;6.766;2023-01-24T00:27:46;3.30;99.90
9980;DHT22;5030;51.532;6.766;2023-01-24T00:30:12;3.30;99.90
9980;DHT22;5030;51.532;6.766;2023-01-24T00:32:38;3.30;99.90
9980;DHT22;5030;51.532;6.766;2023-01-24T00:35:04;3.30;99.90
9980;DHT22;5030;51.532;6.766;2023-01-24T00:37:30;3.30;99.90
9980;DHT22;5030;51.532;6.766;2023-01-24T00:39:55;3.30;99.90
9980;DHT22;5030;51.532;6.766;2023-01-24T00:42:21;3.30;99.90
9980;DHT22;5030;51.532;6.766;2023-01-24T00:44:46;3.30;99.90
9980;DHT22;5030;51.532;6.766;2023-01-24T00:47:12;3.10;99.90
9980;DHT22;5030;51.532;6.766;2023-01-24T00:49:38;3.30;99.90
9980;DHT22;5030;51.532;6.766;2023-01-24T00:52:03;3.30;99.90
9980;DHT22;5030;51.532;6.766;2023-01-24T00:54:29;3.20;99.90
9980;DHT22;5030;51.532;6.766;2023-01-24T00:56:55;3.30;99.90
9980;DHT22;5030;51.532;6.766;2023-01-24T00:59:21;3.30;99.90
9980;DHT22;5030;51.532;6.766;2023-01-24T01:01:46;3.20;99.90
9980;DHT22;5030;51.532;6.766;2023-01-24T01:04:12;3.20;99.90
9980;DHT22;5030;51.532;6.766;2023-01-24T01:06:37;3.10;99.90
9980;DHT22;5030;51.532;6.766;2023-01-24T01:09:03;3.10;99.90
9980;DHT22;5030;51.532;6.766;2023-01-24T01:11:31;3.40;99.90
9980;DHT22;5030;51.532;6.766;2023-01-24T01:13:56;3.30;99.90
9980;DHT22;5030;51.532;6.766;2023-01-24T01:16:23;3.30;99.90
9980;DHT22;5030;51.532;6.766;2023-01-24T01:18:50;3.40;99.90
9980;DHT22;5030;51.532;6.766;2023-01-24T01:21:20;3.30;99.90
9980;DHT22;5030;51.532;6.766;2023-01-24T01:23:46;3.30;99.90
9980;DHT22;5030;51.532;6.766;2023-01-24T01:26:17;3.40;99.90
9980;DHT22;5030;51.532;6.766;2023-01-24T01:28:44;3.30;99.90
9980;DHT22;5030;51.532;6.766;2023-01-24T01:31:11;3.40;99.90
9980;DHT22;5030;51.532;6.766;2023-01-24T01:33:36;3.40;99.90
9980;DHT22;5030;51.532;6.766;2023-01-24T01:36:02;3.40;99.90
9980;DHT22;5030;51.532;6.766;2023-01-24T01:38:27;3.30;99.90
9980;DHT22;5030;51.532;6.766;2023-01-24T01:40:55;3.30;99.90
9980;DHT22;5030;51.532;6.766;2023-01-24T01:43:23;3.20;99.90
9980;DHT22;5030;51.532;6.766;2023-01-24T01:45:50;3.10;99.90
9980;DHT22;5030;51.532;6.766;2023-01-24T01:48:43;3.10;99.90
9980;DHT22;5030;51.532;6.766;2023-01-24T01:51:27;3.10;99.90
9980;DHT22;5030;51.532;6.766;2023-01-24T01:54:02;3.20;99.90
9980;DHT22;5030;51.532;6.766;2023-01-24T01:56:46;3.30;99.90
9980;DHT22;5030;51.532;6.766;2023-01-24T01:59:19;3.20;99.90
9980;DHT22;5030;51.532;6.766;2023-01-24T02:01:48;3.20;99.90
9980;DHT22;5030;51.532;6.766;2023-01-24T02:04:18;3.10;99.90
9980;DHT22;5030;51.532;6.766;2023-01-24T02:09:22;3.20;99.90
9980;DHT22;5030;51.532;6.766;2023-01-24T02:11:50;3.20;99.90
9980;DHT22;5030;51.532;6.766;2023-01-24T02:14:19;3.30;99.90
9980;DHT22;5030;51.532;6.766;2023-01-24T02:17:04;3.40;99.90
9980;DHT22;5030;51.532;6.766;2023-01-24T02:19:54;3.40;99.90
9980;DHT22;5030;51.532;6.766;2023-01-24T02:25:06;3.30;99.90
9980;DHT22;5030;51.532;6.766;2023-01-24T02:27:33;3.30;99.90
9980;DHT22;5030;51.532;6.766;2023-01-24T02:30:00;3.30;99.90
9980;DHT22;5030;51.532;6.766;2023-01-24T02:32:27;3.30;99.90
9980;DHT22;5030;51.532;6.766;2023-01-24T02:34:52;3.30;99.90
9980;DHT22;5030;51.532;6.766;2023-01-24T02:37:18;3.30;99.90
9980;DHT22;5030;51.532;6.766;2023-01-24T02:39:50;3.20;99.90
9980;DHT22;5030;51.532;6.766;2023-01-24T02:42:19;3.20;99.90
9980;DHT22;5030;51.532;6.766;2023-01-24T02:44:48;3.20;99.90
9980;DHT22;5030;51.532;6.766;2023-01-24T02:47:16;3.10;99.90
9980;DHT22;5030;51.532;6.766;2023-01-24T02:49:42;3.10;99.90
9980;DHT22;5030;51.532;6.766;2023-01-24T02:52:08;3.10;99.90
9980;DHT22;5030;51.532;6.766;2023-01-24T02:54:53;3.20;99.90
9980;DHT22;5030;51.532;6.766;2023-01-24T02:59:54;3.20;99.90
9980;DHT22;5030;51.532;6.766;2023-01-24T03:02:20;3.10;99.90
9980;DHT22;5030;51.532;6.766;2023-01-24T03:04:45;3.20;99.90
9980;DHT22;5030;51.532;6.766;2023-01-24T03:07:11;3.20;99.90
9980;DHT22;5030;51.532;6.766;2023-01-24T03:09:36;3.10;99.90
9980;DHT22;5030;51.532;6.766;2023-01-24T03:12:06;3.20;99.90
9980;DHT22;5030;51.532;6.766;2023-01-24T03:14:50;3.00;99.90
9980;DHT22;5030;51.532;6.766;2023-01-24T03:17:34;3.10;99.90
9980;DHT22;5030;51.532;6.766;2023-01-24T03:20:19;3.20;99.90
9980;DHT22;5030;51.532;6.766;2023-01-24T03:23:03;3.00;99.90
9980;DHT22;5030;51.532;6.766;2023-01-24T03:25:47;3.10;99.90
9980;DHT22;5030;51.532;6.766;2023-01-24T03:28:31;3.00;99.90
9980;DHT22;5030;51.532;6.766;2023-01-24T03:31:15;2.90;99.90
9980;DHT22;5030;51.532;6.766;2023-01-24T03:33:59;3.00;99.90
9980;DHT22;5030;51.532;6.766;2023-01-24T03:36:43;3.10;99.90
9980;DHT22;5030;51.532;6.766;2023-01-24T03:39:10;3.00;99.90
9980;DHT22;5030;51.532;6.766;2023-01-24T03:42:02;3.10;99.90
9980;DHT22;5030;51.532;6.766;2023-01-24T03:44:27;3.10;99.90
9980;DHT22;5030;51.532;6.766;2023-01-24T03:46:53;3.30;99.90
9980;DHT22;5030;51.532;6.766;2023-01-24T03:49:19;3.10;99.90
9980;DHT22;5030;51.532;6.766;2023-01-24T03:52:06;3.20;99.90
9980;DHT22;5030;51.532;6.766;2023-01-24T03:54:52;3.00;99.90
9980;DHT22;5030;51.532;6.766;2023-01-24T03:57:18;3.10;99.90
9980;DHT22;5030;51.532;6.766;2023-01-24T03:59:43;3.10;99.90
9980;DHT22;5030;51.532;6.766;2023-01-24T04:02:09;3.10;99.90
9980;DHT22;5030;51.532;6.766;2023-01-24T04:04:35;3.00;99.90
9980;DHT22;5030;51.532;6.766;2023-01-24T04:07:19;3.10;99.90
9980;DHT22;5030;51.532;6.766;2023-01-24T04:09:45;3.00;99.90
9980;DHT22;5030;51.532;6.766;2023-01-24T04:12:10;3.00;99.90
9980;DHT22;5030;51.532;6.766;2023-01-24T04:14:36;3.00;99.90
9980;DHT22;5030;51.532;6.766;2023-01-24T04:17:02;3.10;99.90
9980;DHT22;5030;51.532;6.766;2023-01-24T04:19:27;3.00;99.90
9980;DHT22;5030;51.532;6.766;2023-01-24T04:21:53;2.90;99.90
9980;DHT22;5030;51.532;6.766;2023-01-24T04:24:18;2.80;99.90
9980;DHT22;5030;51.532;6.766;2023-01-24T04:26:44;2.90;99.90
9980;DHT22;5030;51.532;6.766;2023-01-24T04:29:10;2.70;99.90
9980;DHT22;5030;51.532;6.766;2023-01-24T04:31:35;2.70;99.90
9980;DHT22;5030;51.532;6.766;2023-01-24T04:34:01;2.60;99.90
9980;DHT22;5030;51.532;6.766;2023-01-24T04:36:26;2.60;99.90
9980;DHT22;5030;51.532;6.766;2023-01-24T04:38:54;2.70;99.90
9980;DHT22;5030;51.532;6.766;2023-01-24T04:41:20;2.90;99.90
9980;DHT22;5030;51.532;6.766;2023-01-24T04:43:45;2.80;99.90
9980;DHT22;5030;51.532;6.766;2023-01-24T04:46:11;2.80;99.90
9980;DHT22;5030;51.532;6.766;2023-01-24T04:48:36;2.80;99.90
9980;DHT22;5030;51.532;6.766;2023-01-24T04:51:02;2.80;99.90
9980;DHT22;5030;51.532;6.766;2023-01-24T04:53:28;2.80;99.90
9980;DHT22;5030;51.532;6.766;2023-01-24T04:56:03;2.80;99.90
9980;DHT22;5030;51.532;6.766;2023-01-24T04:58:29;2.90;99.90
9980;DHT22;5030;51.532;6.766;2023-01-24T05:00:55;2.90;99.90
9980;DHT22;5030;51.532;6.766;2023-01-24T05:03:20;2.80;99.90
9980;DHT22;5030;51.532;6.766;2023-01-24T05:05:50;2.80;99.90
9980;DHT22;5030;51.532;6.766;2023-01-24T05:08:16;2.90;99.90
9980;DHT22;5030;51.532;6.766;2023-01-24T05:10:42;2.90;99.90
9980;DHT22;5030;51.532;6.766;2023-01-24T05:13:07;3.00;99.90
9980;DHT22;5030;51.532;6.766;2023-01-24T05:15:33;3.00;99.90
9980;DHT22;5030;51.532;6.766;2023-01-24T05:17:58;2.90;99.90
9980;DHT22;5030;51.532;6.766;2023-01-24T05:20:24;2.80;99.90
9980;DHT22;5030;51.532;6.766;2023-01-24T05:22:50;2.80;99.90
9980;DHT22;5030;51.532;6.766;2023-01-24T05:25:16;2.80;99.90
9980;DHT22;5030;51.532;6.766;2023-01-24T05:27:42;2.70;99.90
9980;DHT22;5030;51.532;6.766;2023-01-24T05:30:08;2.90;99.90
9980;DHT22;5030;51.532;6.766;2023-01-24T05:32:34;2.90;99.90
9980;DHT22;5030;51.532;6.766;2023-01-24T05:35:00;2.90;99.90
9980;DHT22;5030;51.532;6.766;2023-01-24T05:37:26;2.70;99.90
9980;DHT22;5030;51.532;6.766;2023-01-24T05:39:51;2.70;99.90
9980;DHT22;5030;51.532;6.766;2023-01-24T05:42:17;2.60;99.90
9980;DHT22;5030;51.532;6.766;2023-01-24T05:44:42;2.70;99.90
9980;DHT22;5030;51.532;6.766;2023-01-24T05:47:08;2.60;99.90
9980;DHT22;5030;51.532;6.766;2023-01-24T05:49:34;2.60;99.90
9980;DHT22;5030;51.532;6.766;2023-01-24T05:51:59;2.60;99.90
9980;DHT22;5030;51.532;6.766;2023-01-24T05:54:25;2.60;99.90
9980;DHT22;5030;51.532;6.766;2023-01-24T05:56:52;2.60;99.90
9980;DHT22;5030;51.532;6.766;2023-01-24T05:59:18;2.60;99.90
9980;DHT22;5030;51.532;6.766;2023-01-24T06:01:44;2.60;99.90
9980;DHT22;5030;51.532;6.766;2023-01-24T06:04:09;2.50;99.90
9980;DHT22;5030;51.532;6.766;2023-01-24T06:06:35;2.60;99.90
9980;DHT22;5030;51.532;6.766;2023-01-24T06:09:00;2.60;99.90
9980;DHT22;5030;51.532;6.766;2023-01-24T06:11:27;2.80;99.90
9980;DHT22;5030;51.532;6.766;2023-01-24T06:13:56;2.70;99.90
9980;DHT22;5030;51.532;6.766;2023-01-24T06:16:23;2.60;99.90
9980;DHT22;5030;51.532;6.766;2023-01-24T06:18:50;2.60;99.90
9980;DHT22;5030;51.532;6.766;2023-01-24T06:21:47;2.50;99.90
9980;DHT22;5030;51.532;6.766;2023-01-24T06:26:44;2.50;99.90
9980;DHT22;5030;51.532;6.766;2023-01-24T06:29:11;2.50;99.90
9980;DHT22;5030;51.532;6.766;2023-01-24T06:32:04;2.60;99.90
9980;DHT22;5030;51.532;6.766;2023-01-24T06:39:53;2.50;99.90
9980;DHT22;5030;51.532;6.766;2023-01-24T06:42:19;2.60;99.90
9980;DHT22;5030;51.532;6.766;2023-01-24T06:44:46;2.50;99.90
9980;DHT22;5030;51.532;6.766;2023-01-24T06:47:12;2.60;99.90
9980;DHT22;5030;51.532;6.766;2023-01-24T06:49:39;2.60;99.90
9980;DHT22;5030;51.532;6.766;2023-01-24T06:52:05;2.50;99.90
9980;DHT22;5030;51.532;6.766;2023-01-24T06:54:30;2.50;99.90
9980;DHT22;5030;51.532;6.766;2023-01-24T06:56:56;2.50;99.90
9980;DHT22;5030;51.532;6.766;2023-01-24T06:59:22;2.60;99.90
9980;DHT22;5030;51.532;6.766;2023-01-24T07:01:51;2.50;99.90
9980;DHT22;5030;51.532;6.766;2023-01-24T07:04:17;2.70;99.90
9980;DHT22;5030;51.532;6.766;2023-01-24T07:06:43;2.70;99.90
9980;DHT22;5030;51.532;6.766;2023-01-24T07:09:09;2.70;99.90
9980;DHT22;5030;51.532;6.766;2023-01-24T07:11:35;2.70;99.90
9980;DHT22;5030;51.532;6.766;2023-01-24T07:14:01;2.60;99.90
9980;DHT22;5030;51.532;6.766;2023-01-24T07:16:27;2.60;99.90
9980;DHT22;5030;51.532;6.766;2023-01-24T07:18:53;2.50;99.90
9980;DHT22;5030;51.532;6.766;2023-01-24T07:21:19;2.60;99.90
9980;DHT22;5030;51.532;6.766;2023-01-24T07:23:46;2.60;99.90
9980;DHT22;5030;51.532;6.766;2023-01-24T07:26:13;2.60;99.90
9980;DHT22;5030;51.532;6.766;2023-01-24T07:28:39;2.50;99.90
9980;DHT22;5030;51.532;6.766;2023-01-24T07:31:05;2.60;99.90
9980;DHT22;5030;51.532;6.766;2023-01-24T07:33:31;2.50;99.90
9980;DHT22;5030;51.532;6.766;2023-01-24T07:35:56;2.50;99.90
9980;DHT22;5030;51.532;6.766;2023-01-24T07:38:22;2.70;99.90
9980;DHT22;5030;51.532;6.766;2023-01-24T07:40:48;2.80;99.90
9980;DHT22;5030;51.532;6.766;2023-01-24T07:43:14;2.80;99.90
9980;DHT22;5030;51.532;6.766;2023-01-24T07:45:40;2.80;99.90
9980;DHT22;5030;51.532;6.766;2023-01-24T07:48:06;2.80;99.90
9980;DHT22;5030;51.532;6.766;2023-01-24T07:50:35;2.80;99.90
9980;DHT22;5030;51.532;6.766;2023-01-24T07:53:00;2.80;99.90
9980;DHT22;5030;51.532;6.766;2023-01-24T07:55:26;2.70;99.90
9980;DHT22;5030;51.532;6.766;2023-01-24T07:58:00;2.70;99.90
9980;DHT22;5030;51.532;6.766;2023-01-24T08:00:27;2.70;99.90
9980;DHT22;5030;51.532;6.766;2023-01-24T08:02:53;2.70;99.90
9980;DHT22;5030;51.532;6.766;2023-01-24T08:05:19;2.80;99.90
9980;DHT22;5030;51.532;6.766;2023-01-24T08:07:45;3.00;99.90
9980;DHT22;5030;51.532;6.766;2023-01-24T08:10:10;2.90;99.90
9980;DHT22;5030;51.532;6.766;2023-01-24T08:12:36;2.80;99.90
9980;DHT22;5030;51.532;6.766;2023-01-24T08:15:02;2.80;99.90
9980;DHT22;5030;51.532;6.766;2023-01-24T08:17:28;2.80;99.90
9980;DHT22;5030;51.532;6.766;2023-01-24T08:19:54;2.70;99.90
9980;DHT22;5030;51.532;6.766;2023-01-24T08:22:19;2.80;99.90
9980;DHT22;5030;51.532;6.766;2023-01-24T08:24:45;3.00;99.90
9980;DHT22;5030;51.532;6.766;2023-01-24T08:27:11;2.80;99.90
9980;DHT22;5030;51.532;6.766;2023-01-24T08:29:36;2.80;99.90
9980;DHT22;5030;51.532;6.766;2023-01-24T08:32:02;2.90;99.90
9980;DHT22;5030;51.532;6.766;2023-01-24T08:34:28;2.80;99.90
9980;DHT22;5030;51.532;6.766;2023-01-24T08:36:54;2.90;99.90
9980;DHT22;5030;51.532;6.766;2023-01-24T08:39:20;2.90;99.90
9980;DHT22;5030;51.532;6.766;2023-01-24T08:41:46;3.00;99.90
9980;DHT22;5030;51.532;6.766;2023-01-24T08:44:12;2.90;99.90
9980;DHT22;5030;51.532;6.766;2023-01-24T08:46:39;3.00;99.90
9980;DHT22;5030;51.532;6.766;2023-01-24T08:49:05;2.90;99.90
9980;DHT22;5030;51.532;6.766;2023-01-24T08:51:31;3.00;99.90
9980;DHT22;5030;51.532;6.766;2023-01-24T08:53:57;2.90;99.90
9980;DHT22;5030;51.532;6.766;2023-01-24T08:56:22;3.10;99.90
9980;DHT22;5030;51.532;6.766;2023-01-24T08:58:48;3.20;99.90
9980;DHT22;5030;51.532;6.766;2023-01-24T09:01:13;3.10;99.90
9980;DHT22;5030;51.532;6.766;2023-01-24T09:03:39;3.10;99.90
9980;DHT22;5030;51.532;6.766;2023-01-24T09:06:06;3.20;99.90
9980;DHT22;5030;51.532;6.766;2023-01-24T09:08:31;3.30;99.90
9980;DHT22;5030;51.532;6.766;2023-01-24T09:10:58;3.30;99.90
9980;DHT22;5030;51.532;6.766;2023-01-24T09:13:25;3.20;99.90
9980;DHT22;5030;51.532;6.766;2023-01-24T09:15:51;3.20;99.90
9980;DHT22;5030;51.532;6.766;2023-01-24T09:18:16;3.10;99.90
9980;DHT22;5030;51.532;6.766;2023-01-24T09:20:42;3.00;99.90
9980;DHT22;5030;51.532;6.766;2023-01-24T09:23:09;3.10;99.90
9980;DHT22;5030;51.532;6.766;2023-01-24T09:25:37;3.20;99.90
9980;DHT22;5030;51.532;6.766;2023-01-24T09:28:03;3.40;99.90
9980;DHT22;5030;51.532;6.766;2023-01-24T09:30:28;3.30;99.90
9980;DHT22;5030;51.532;6.766;2023-01-24T09:32:54;3.40;99.90
9980;DHT22;5030;51.532;6.766;2023-01-24T09:35:19;3.40;99.90
9980;DHT22;5030;51.532;6.766;2023-01-24T09:37:45;3.50;99.90
9980;DHT22;5030;51.532;6.766;2023-01-24T09:40:32;3.50;99.90
9980;DHT22;5030;51.532;6.766;2023-01-24T09:45:55;3.60;99.90
9980;DHT22;5030;51.532;6.766;2023-01-24T09:48:23;3.60;99.90
9980;DHT22;5030;51.532;6.766;2023-01-24T09:50:52;3.50;99.90
9980;DHT22;5030;51.532;6.766;2023-01-24T09:53:53;3.50;99.90
9980;DHT22;5030;51.532;6.766;2023-01-24T09:56:22;3.50;99.90
9980;DHT22;5030;51.532;6.766;2023-01-24T10:01:39;3.50;99.90
9980;DHT22;5030;51.532;6.766;2023-01-24T10:04:22;3.50;99.90
9980;DHT22;5030;51.532;6.766;2023-01-24T10:18:16;3.80;99.90
9980;DHT22;5030;51.532;6.766;2023-01-24T10:23:43;3.70;99.90
9980;DHT22;5030;51.532;6.766;2023-01-24T10:26:41;3.70;99.90
9980;DHT22;5030;51.532;6.766;2023-01-24T10:29:23;3.60;99.90
9980;DHT22;5030;51.532;6.766;2023-01-24T10:34:51;3.90;99.90
9980;DHT22;5030;51.532;6.766;2023-01-24T10:37:24;3.70;99.90
9980;DHT22;5030;51.532;6.766;2023-01-24T10:39:51;3.90;99.90
9980;DHT22;5030;51.532;6.766;2023-01-24T10:42:27;4.00;99.90
9980;DHT22;5030;51.532;6.766;2023-01-24T10:44:55;4.00;99.90
9980;DHT22;5030;51.532;6.766;2023-01-24T10:47:46;4.20;99.90
9980;DHT22;5030;51.532;6.766;2023-01-24T10:50:15;4.20;99.90
9980;DHT22;5030;51.532;6.766;2023-01-24T10:52:42;4.00;99.90
9980;DHT22;5030;51.532;6.766;2023-01-24T10:55:37;4.10;99.90
9980;DHT22;5030;51.532;6.766;2023-01-24T10:58:20;4.10;99.90
9980;DHT22;5030;51.532;6.766;2023-01-24T11:00:46;4.00;99.90
9980;DHT22;5030;51.532;6.766;2023-01-24T11:03:21;4.10;99.90
9980;DHT22;5030;51.532;6.766;2023-01-24T11:05:49;4.10;99.90
9980;DHT22;5030;51.532;6.766;2023-01-24T11:08:21;4.20;99.90
9980;DHT22;5030;51.532;6.766;2023-01-24T11:10:55;4.20;99.90
9980;DHT22;5030;51.532;6.766;2023-01-24T11:13:40;4.20;99.90
9980;DHT22;5030;51.532;6.766;2023-01-24T11:18:48;4.30;99.90
9980;DHT22;5030;51.532;6.766;2023-01-24T11:21:18;4.30;99.90
9980;DHT22;5030;51.532;6.766;2023-01-24T11:23:44;4.30;99.90
9980;DHT22;5030;51.532;6.766;2023-01-24T11:26:37;4.30;99.90
9980;DHT22;5030;51.532;6.766;2023-01-24T11:29:16;4.30;99.90
9980;DHT22;5030;51.532;6.766;2023-01-24T11:42:35;4.10;99.90
9980;DHT22;5030;51.532;6.766;2023-01-24T11:51:18;4.50;99.90
9980;DHT22;5030;51.532;6.766;2023-01-24T12:01:44;4.60;99.90
9980;DHT22;5030;51.532;6.766;2023-01-24T12:21:08;4.60;99.90
9980;DHT22;5030;51.532;6.766;2023-01-24T12:26:29;4.80;99.90
9980;DHT22;5030;51.532;6.766;2023-01-24T12:29:11;4.70;99.90
9980;DHT22;5030;51.532;6.766;2023-01-24T12:32:03;4.50;99.90
9980;DHT22;5030;51.532;6.766;2023-01-24T12:45:36;4.80;99.90
9980;DHT22;5030;51.532;6.766;2023-01-24T12:48:16;4.70;99.90
9980;DHT22;5030;51.532;6.766;2023-01-24T12:56:32;4.70;99.90
9980;DHT22;5030;51.532;6.766;2023-01-24T12:58:59;4.70;99.90
9980;DHT22;5030;51.532;6.766;2023-01-24T13:06:53;4.60;99.90
9980;DHT22;5030;51.532;6.766;2023-01-24T13:11:54;4.80;99.90
9980;DHT22;5030;51.532;6.766;2023-01-24T13:14:37;4.40;99.90
9980;DHT22;5030;51.532;6.766;2023-01-24T13:26:22;4.20;99.90
9980;DHT22;5030;51.532;6.766;2023-01-24T13:31:28;4.00;99.90
9980;DHT22;5030;51.532;6.766;2023-01-24T13:33:58;4.00;99.90
9980;DHT22;5030;51.532;6.766;2023-01-24T13:36:36;4.00;99.90
9980;DHT22;5030;51.532;6.766;2023-01-24T13:39:04;4.00;99.90
9980;DHT22;5030;51.532;6.766;2023-01-24T13:51:48;4.50;99.90
9980;DHT22;5030;51.532;6.766;2023-01-24T13:59:42;4.40;99.90
9980;DHT22;5030;51.532;6.766;2023-01-24T14:08:01;4.20;99.90
9980;DHT22;5030;51.532;6.766;2023-01-24T14:10:34;4.10;99.90
9980;DHT22;5030;51.532;6.766;2023-01-24T14:13:00;4.30;99.90
9980;DHT22;5030;51.532;6.766;2023-01-24T14:15:40;4.30;99.90
9980;DHT22;5030;51.532;6.766;2023-01-24T14:18:48;4.20;99.90
9980;DHT22;5030;51.532;6.766;2023-01-24T14:21:21;4.10;99.90
9980;DHT22;5030;51.532;6.766;2023-01-24T14:23:59;4.20;99.90
9980;DHT22;5030;51.532;6.766;2023-01-24T14:26:28;4.10;99.90
9980;DHT22;5030;51.532;6.766;2023-01-24T14:29:03;4.00;99.90
9980;DHT22;5030;51.532;6.766;2023-01-24T14:31:34;3.80;99.90
9980;DHT22;5030;51.532;6.766;2023-01-24T14:36:38;3.80;99.90
9980;DHT22;5030;51.532;6.766;2023-01-24T14:39:25;3.90;99.90
9980;DHT22;5030;51.532;6.766;2023-01-24T14:42:01;4.00;99.90
9980;DHT22;5030;51.532;6.766;2023-01-24T14:44:32;3.90;99.90
9980;DHT22;5030;51.532;6.766;2023-01-24T14:47:12;3.80;99.90
9980;DHT22;5030;51.532;6.766;2023-01-24T14:49:45;3.90;99.90
9980;DHT22;5030;51.532;6.766;2023-01-24T14:52:24;3.90;99.90
9980;DHT22;5030;51.532;6.766;2023-01-24T14:54:54;3.90;99.90
9980;DHT22;5030;51.532;6.766;2023-01-24T14:59:46;3.80;99.90
9980;DHT22;5030;51.532;6.766;2023-01-24T15:02:16;3.60;99.90
9980;DHT22;5030;51.532;6.766;2023-01-24T15:04:44;3.60;99.90
9980;DHT22;5030;51.532;6.766;2023-01-24T15:07:14;3.60;99.90
9980;DHT22;5030;51.532;6.766;2023-01-24T15:09:41;3.50;99.90
9980;DHT22;5030;51.532;6.766;2023-01-24T15:12:33;3.60;99.90
9980;DHT22;5030;51.532;6.766;2023-01-24T15:15:01;3.50;99.90
9980;DHT22;5030;51.532;6.766;2023-01-24T15:17:29;3.60;99.90
9980;DHT22;5030;51.532;6.766;2023-01-24T15:20:07;3.50;99.90
9980;DHT22;5030;51.532;6.766;2023-01-24T15:22:37;3.50;99.90
9980;DHT22;5030;51.532;6.766;2023-01-24T15:25:14;3.50;99.90
9980;DHT22;5030;51.532;6.766;2023-01-24T15:27:43;3.60;99.90
9980;DHT22;5030;51.532;6.766;2023-01-24T15:30:23;3.50;99.90
9980;DHT22;5030;51.532;6.766;2023-01-24T15:33:12;3.70;99.90
9980;DHT22;5030;51.532;6.766;2023-01-24T15:35:39;3.60;99.90
9980;DHT22;5030;51.532;6.766;2023-01-24T15:38:14;3.50;99.90
9980;DHT22;5030;51.532;6.766;2023-01-24T15:40:48;3.50;99.90
9980;DHT22;5030;51.532;6.766;2023-01-24T15:43:35;3.50;99.90
9980;DHT22;5030;51.532;6.766;2023-01-24T15:46:32;3.30;99.90
9980;DHT22;5030;51.532;6.766;2023-01-24T15:57:36;3.30;99.90
9980;DHT22;5030;51.532;6.766;2023-01-24T16:00:22;3.30;99.90
9980;DHT22;5030;51.532;6.766;2023-01-24T16:02:48;3.20;99.90
9980;DHT22;5030;51.532;6.766;2023-01-24T16:05:16;3.30;99.90
9980;DHT22;5030;51.532;6.766;2023-01-24T16:07:42;3.30;99.90
9980;DHT22;5030;51.532;6.766;2023-01-24T16:10:17;3.20;99.90
9980;DHT22;5030;51.532;6.766;2023-01-24T16:12:44;3.20;99.90
9980;DHT22;5030;51.532;6.766;2023-01-24T16:15:19;3.20;99.90
9980;DHT22;5030;51.532;6.766;2023-01-24T16:17:45;3.10;99.90
9980;DHT22;5030;51.532;6.766;2023-01-24T16:20:20;3.10;99.90
9980;DHT22;5030;51.532;6.766;2023-01-24T16:22:46;2.90;99.90
9980;DHT22;5030;51.532;6.766;2023-01-24T16:25:12;3.00;99.90
9980;DHT22;5030;51.532;6.766;2023-01-24T16:27:39;2.90;99.90
9980;DHT22;5030;51.532;6.766;2023-01-24T16:30:17;2.80;99.90
9980;DHT22;5030;51.532;6.766;2023-01-24T16:32:44;2.70;99.90
9980;DHT22;5030;51.532;6.766;2023-01-24T16:35:10;2.60;99.90
9980;DHT22;5030;51.532;6.766;2023-01-24T16:37:35;2.60;99.90
9980;DHT22;5030;51.532;6.766;2023-01-24T16:40:01;2.60;99.90
9980;DHT22;5030;51.532;6.766;2023-01-24T16:42:27;2.70;99.90
9980;DHT22;5030;51.532;6.766;2023-01-24T16:44:57;2.70;99.90
9980;DHT22;5030;51.532;6.766;2023-01-24T16:47:24;2.70;99.90
9980;DHT22;5030;51.532;6.766;2023-01-24T16:49:55;2.70;99.90
9980;DHT22;5030;51.532;6.766;2023-01-24T16:52:22;2.70;99.90
9980;DHT22;5030;51.532;6.766;2023-01-24T16:54:49;2.60;99.90
9980;DHT22;5030;51.532;6.766;2023-01-24T16:57:15;2.50;99.90
9980;DHT22;5030;51.532;6.766;2023-01-24T16:59:40;2.60;99.90
9980;DHT22;5030;51.532;6.766;2023-01-24T17:02:07;2.50;99.90
9980;DHT22;5030;51.532;6.766;2023-01-24T17:04:33;2.70;99.90
9980;DHT22;5030;51.532;6.766;2023-01-24T17:06:58;2.70;99.90
9980;DHT22;5030;51.532;6.766;2023-01-24T17:09:31;2.70;99.90
9980;DHT22;5030;51.532;6.766;2023-01-24T17:11:59;2.90;99.90
9980;DHT22;5030;51.532;6.766;2023-01-24T17:14:25;2.80;99.90
9980;DHT22;5030;51.532;6.766;2023-01-24T17:16:51;2.80;99.90
9980;DHT22;5030;51.532;6.766;2023-01-24T17:19:17;2.60;99.90
9980;DHT22;5030;51.532;6.766;2023-01-24T17:21:43;2.60;99.90
9980;DHT22;5030;51.532;6.766;2023-01-24T17:24:09;2.50;99.90
9980;DHT22;5030;51.532;6.766;2023-01-24T17:26:35;2.50;99.90
9980;DHT22;5030;51.532;6.766;2023-01-24T17:29:02;2.40;99.90
9980;DHT22;5030;51.532;6.766;2023-01-24T17:31:28;2.50;99.90
9980;DHT22;5030;51.532;6.766;2023-01-24T17:33:54;2.50;99.90
9980;DHT22;5030;51.532;6.766;2023-01-24T17:36:19;2.40;99.90
9980;DHT22;5030;51.532;6.766;2023-01-24T17:38:45;2.50;99.90
9980;DHT22;5030;51.532;6.766;2023-01-24T17:41:17;2.50;99.90
9980;DHT22;5030;51.532;6.766;2023-01-24T17:43:43;2.60;99.90
9980;DHT22;5030;51.532;6.766;2023-01-24T17:46:09;2.80;99.90
9980;DHT22;5030;51.532;6.766;2023-01-24T17:48:36;2.80;99.90
9980;DHT22;5030;51.532;6.766;2023-01-24T17:51:10;2.80;99.90
9980;DHT22;5030;51.532;6.766;2023-01-24T17:53:38;2.70;99.90
9980;DHT22;5030;51.532;6.766;2023-01-24T17:56:05;2.70;99.90
9980;DHT22;5030;51.532;6.766;2023-01-24T17:58:31;2.60;99.90
9980;DHT22;5030;51.532;6.766;2023-01-24T18:00:57;2.50;99.90
9980;DHT22;5030;51.532;6.766;2023-01-24T18:03:23;2.40;99.90
9980;DHT22;5030;51.532;6.766;2023-01-24T18:05:50;2.40;99.90
9980;DHT22;5030;51.532;6.766;2023-01-24T18:08:16;2.30;99.90
9980;DHT22;5030;51.532;6.766;2023-01-24T18:10:42;2.30;99.90
9980;DHT22;5030;51.532;6.766;2023-01-24T18:13:08;2.20;99.90
9980;DHT22;5030;51.532;6.766;2023-01-24T18:15:34;2.50;99.90
9980;DHT22;5030;51.532;6.766;2023-01-24T18:18:00;2.40;99.90
9980;DHT22;5030;51.532;6.766;2023-01-24T18:20:25;2.40;99.90
9980;DHT22;5030;51.532;6.766;2023-01-24T18:22:51;2.30;99.90
9980;DHT22;5030;51.532;6.766;2023-01-24T18:25:18;2.20;99.90
9980;DHT22;5030;51.532;6.766;2023-01-24T18:27:44;2.30;99.90
9980;DHT22;5030;51.532;6.766;2023-01-24T18:30:11;2.20;99.90
9980;DHT22;5030;51.532;6.766;2023-01-24T18:32:36;2.20;99.90
9980;DHT22;5030;51.532;6.766;2023-01-24T18:35:02;2.20;99.90
9980;DHT22;5030;51.532;6.766;2023-01-24T18:37:28;2.40;99.90
9980;DHT22;5030;51.532;6.766;2023-01-24T18:39:54;2.50;99.90
9980;DHT22;5030;51.532;6.766;2023-01-24T18:42:19;2.60;99.90
9980;DHT22;5030;51.532;6.766;2023-01-24T18:44:45;2.50;99.90
9980;DHT22;5030;51.532;6.766;2023-01-24T18:47:11;2.40;99.90
9980;DHT22;5030;51.532;6.766;2023-01-24T18:49:36;2.40;99.90
9980;DHT22;5030;51.532;6.766;2023-01-24T18:52:02;2.40;99.90
9980;DHT22;5030;51.532;6.766;2023-01-24T18:54:28;2.30;99.90
9980;DHT22;5030;51.532;6.766;2023-01-24T18:56:54;2.30;99.90
9980;DHT22;5030;51.532;6.766;2023-01-24T18:59:20;2.30;99.90
9980;DHT22;5030;51.532;6.766;2023-01-24T19:01:45;2.30;99.90
9980;DHT22;5030;51.532;6.766;2023-01-24T19:04:11;2.40;99.90
9980;DHT22;5030;51.532;6.766;2023-01-24T19:06:37;2.30;99.90
9980;DHT22;5030;51.532;6.766;2023-01-24T19:09:06;2.40;99.90